createdAt,value
2019-03-27T00:01:23.996Z,16.20
2019-03-27T00:03:52.461Z,16.35
2019-03-27T00:06:21.039Z,14.58
2019-03-27T00:08:49.494Z,17.02
2019-03-27T00:11:17.943Z,16.23
2019-03-27T00:13:46.454Z,15.60
2019-03-27T00:16:15.308Z,18.50
2019-03-27T00:18:43.765Z,16.70
2019-03-27T00:21:12.328Z,15.98
2019-03-27T00:23:40.853Z,17.77
2019-03-27T00:26:09.332Z,20.57
2019-03-27T00:28:37.938Z,20.08
2019-03-27T00:31:06.435Z,20.60
2019-03-27T00:33:34.891Z,19.42
2019-03-27T00:36:03.395Z,19.65
2019-03-27T00:38:31.844Z,18.95
2019-03-27T00:41:00.303Z,18.98
2019-03-27T00:43:28.812Z,19.57
2019-03-27T00:45:57.339Z,16.17
2019-03-27T00:48:25.788Z,20.70
2019-03-27T00:50:54.283Z,19.48
2019-03-27T00:53:22.819Z,19.25
2019-03-27T00:55:51.423Z,19.12
2019-03-27T00:58:19.913Z,21.37
2019-03-27T01:00:51.466Z,20.15
2019-03-27T01:03:19.919Z,21.50
2019-03-27T01:05:48.399Z,19.55
2019-03-27T01:08:16.881Z,15.60
2019-03-27T01:10:45.403Z,9.68
2019-03-27T01:13:13.889Z,15.55
2019-03-27T01:15:42.374Z,16.48
2019-03-27T01:18:11.403Z,15.95
2019-03-27T01:20:39.900Z,14.35
2019-03-27T01:23:08.428Z,15.38
2019-03-27T01:25:36.897Z,16.35
2019-03-27T01:28:05.455Z,15.10
2019-03-27T01:30:33.905Z,16.67
2019-03-27T01:33:02.440Z,14.93
2019-03-27T01:35:31.008Z,13.15
2019-03-27T01:37:59.470Z,13.00
2019-03-27T01:40:28.001Z,11.12
2019-03-27T01:42:56.488Z,14.05
2019-03-27T01:45:25.023Z,13.45
2019-03-27T01:47:53.493Z,13.13
2019-03-27T01:50:22.119Z,11.10
2019-03-27T01:52:50.571Z,14.63
2019-03-27T01:55:19.031Z,10.82
2019-03-27T01:57:47.526Z,13.58
2019-03-27T02:00:16.295Z,14.60
2019-03-27T02:02:44.746Z,12.03
2019-03-27T02:05:13.476Z,10.55
2019-03-27T02:07:42.036Z,12.40
2019-03-27T02:10:11.340Z,12.07
2019-03-27T02:12:39.838Z,13.60
2019-03-27T02:15:09.215Z,13.62
2019-03-27T02:17:37.673Z,13.83
2019-03-27T02:20:07.743Z,14.45
2019-03-27T02:22:36.279Z,14.75
2019-03-27T02:25:06.141Z,15.78
2019-03-27T02:27:34.639Z,13.62
2019-03-27T02:30:03.275Z,12.53
2019-03-27T02:32:31.816Z,17.70
2019-03-27T02:35:00.530Z,16.62
2019-03-27T02:37:29.105Z,15.83
2019-03-27T02:39:57.636Z,15.45
2019-03-27T02:42:26.134Z,19.07
2019-03-27T02:44:54.665Z,18.10
2019-03-27T02:47:23.140Z,19.42
2019-03-27T02:49:51.641Z,16.65
2019-03-27T02:52:20.104Z,18.60
2019-03-27T02:54:48.567Z,16.52
2019-03-27T02:57:17.083Z,18.52
2019-03-27T02:59:45.608Z,16.15
2019-03-27T03:02:14.142Z,12.45
2019-03-27T03:04:42.786Z,16.83
2019-03-27T03:07:11.240Z,14.30
2019-03-27T03:09:39.705Z,16.87
2019-03-27T03:12:08.201Z,14.70
2019-03-27T03:14:36.733Z,19.82
2019-03-27T03:17:05.192Z,18.82
2019-03-27T03:19:33.757Z,17.25
2019-03-27T03:22:02.459Z,18.60
2019-03-27T03:24:30.961Z,21.70
2019-03-27T03:26:59.529Z,20.85
2019-03-27T03:29:28.073Z,19.17
2019-03-27T03:31:59.767Z,18.90
2019-03-27T03:34:28.319Z,18.90
2019-03-27T03:36:56.852Z,20.45
2019-03-27T03:39:25.307Z,24.47
2019-03-27T03:41:53.813Z,19.62
2019-03-27T03:44:22.363Z,21.50
2019-03-27T03:46:59.565Z,22.40
2019-03-27T03:49:21.112Z,25.57
2019-03-27T03:51:49.811Z,24.75
2019-03-27T03:54:18.825Z,27.40
2019-03-27T03:56:49.350Z,24.23
2019-03-27T03:59:19.427Z,24.70
2019-03-27T04:01:50.069Z,23.55
2019-03-27T04:04:20.968Z,23.38
2019-03-27T04:06:49.438Z,21.70
2019-03-27T04:09:18.043Z,28.38
2019-03-27T04:11:46.546Z,27.77
2019-03-27T04:14:15.091Z,29.18
2019-03-27T04:16:43.621Z,28.38
2019-03-27T04:19:12.199Z,33.65
2019-03-27T04:21:40.663Z,28.98
2019-03-27T04:24:09.403Z,31.23
2019-03-27T04:26:37.965Z,37.90
2019-03-27T04:29:06.507Z,30.43
2019-03-27T04:31:34.974Z,31.77
2019-03-27T04:34:03.472Z,28.60
2019-03-27T04:36:31.933Z,30.60
2019-03-27T04:39:00.392Z,29.55
2019-03-27T04:41:28.959Z,29.05
2019-03-27T04:43:57.448Z,31.52
2019-03-27T04:46:25.996Z,32.90
2019-03-27T04:48:54.561Z,31.45
2019-03-27T04:51:23.100Z,31.97
2019-03-27T04:53:51.563Z,31.77
2019-03-27T04:56:20.068Z,29.32
2019-03-27T04:58:48.780Z,30.50
2019-03-27T05:01:17.249Z,32.90
2019-03-27T05:03:45.822Z,34.75
2019-03-27T05:06:14.356Z,33.73
2019-03-27T05:08:42.822Z,37.08
2019-03-27T05:11:11.397Z,34.90
2019-03-27T05:13:39.933Z,32.95
2019-03-27T05:16:08.396Z,31.52
2019-03-27T05:18:36.888Z,31.95
2019-03-27T05:21:05.423Z,32.17
2019-03-27T05:23:33.881Z,32.48
2019-03-27T05:26:02.521Z,34.95
2019-03-27T05:28:31.000Z,35.03
2019-03-27T05:30:59.525Z,34.50
2019-03-27T05:33:28.108Z,33.23
2019-03-27T05:35:56.656Z,33.48
2019-03-27T05:38:25.224Z,34.65
2019-03-27T05:40:53.794Z,38.48
2019-03-27T05:43:22.277Z,37.70
2019-03-27T05:45:50.740Z,44.70
2019-03-27T05:48:19.315Z,43.73
2019-03-27T05:50:47.840Z,37.85
2019-03-27T05:53:16.299Z,38.60
2019-03-27T05:55:44.872Z,62.93
2019-03-27T05:58:13.337Z,37.98
2019-03-27T06:00:41.800Z,43.30
2019-03-27T06:03:10.303Z,40.73
2019-03-27T06:05:38.763Z,36.48
2019-03-27T06:08:07.314Z,38.02
2019-03-27T06:10:35.880Z,39.73
2019-03-27T06:13:04.336Z,29.75
2019-03-27T06:15:32.795Z,30.35
2019-03-27T06:18:12.519Z,30.30
2019-03-27T06:20:31.549Z,31.37
2019-03-27T06:23:00.086Z,23.80
2019-03-27T06:25:28.588Z,24.72
2019-03-27T06:27:58.360Z,21.70
2019-03-27T06:30:26.816Z,26.65
2019-03-27T06:32:55.503Z,25.72
2019-03-27T06:35:23.967Z,28.63
2019-03-27T06:37:52.466Z,23.52
2019-03-27T06:40:21.101Z,21.57
2019-03-27T06:42:49.560Z,22.70
2019-03-27T06:45:18.020Z,18.17
2019-03-27T06:47:46.595Z,19.55
2019-03-27T06:50:15.183Z,26.10
2019-03-27T06:52:43.640Z,18.60
2019-03-27T06:55:12.273Z,19.42
2019-03-27T06:57:40.830Z,21.33
2019-03-27T07:00:11.363Z,17.15
2019-03-27T07:02:39.970Z,23.98
2019-03-27T07:05:08.767Z,20.68
2019-03-27T07:07:37.445Z,20.80
2019-03-27T07:10:09.092Z,19.52
2019-03-27T07:12:37.696Z,21.40
2019-03-27T07:15:07.468Z,18.25
2019-03-27T07:20:06.155Z,19.12
2019-03-27T07:22:34.760Z,20.27
2019-03-27T07:25:04.774Z,18.35
2019-03-27T07:27:33.306Z,20.55
2019-03-27T07:30:02.050Z,25.35
2019-03-27T07:32:30.630Z,23.92
2019-03-27T07:34:59.189Z,20.32
2019-03-27T07:37:27.713Z,22.48
2019-03-27T07:39:56.286Z,23.70
2019-03-27T07:42:24.796Z,27.75
2019-03-27T07:44:53.261Z,28.50
2019-03-27T07:47:21.831Z,25.10
2019-03-27T07:49:50.279Z,18.70
2019-03-27T07:52:18.736Z,15.00
2019-03-27T07:54:47.224Z,19.23
2019-03-27T07:57:15.680Z,16.50
2019-03-27T07:59:44.136Z,12.23
2019-03-27T08:02:12.649Z,12.95
2019-03-27T08:04:41.208Z,10.40
2019-03-27T08:07:09.738Z,12.23
2019-03-27T08:09:38.248Z,9.73
2019-03-27T08:12:06.720Z,10.20
2019-03-27T08:14:35.192Z,11.25
2019-03-27T08:17:04.002Z,13.13
2019-03-27T08:19:32.528Z,11.85
2019-03-27T08:22:00.990Z,15.08
2019-03-27T08:24:29.538Z,13.80
2019-03-27T08:26:58.065Z,9.20
2019-03-27T08:29:26.584Z,7.63
2019-03-27T08:31:55.107Z,9.48
2019-03-27T08:34:23.691Z,9.88
2019-03-27T08:36:52.158Z,10.08
2019-03-27T08:39:20.666Z,11.22
2019-03-27T08:41:49.128Z,11.90
2019-03-27T08:44:17.591Z,13.05
2019-03-27T08:46:46.089Z,13.93
2019-03-27T08:49:21.693Z,10.15
2019-03-27T08:51:44.790Z,11.08
2019-03-27T08:54:13.375Z,10.80
2019-03-27T08:56:41.901Z,11.93
2019-03-27T08:59:10.357Z,10.13
2019-03-27T09:01:38.852Z,10.28
2019-03-27T09:04:07.452Z,11.15
2019-03-27T09:06:35.988Z,9.90
2019-03-27T09:09:07.068Z,10.05
2019-03-27T09:11:35.601Z,9.50
2019-03-27T09:14:04.268Z,7.53
2019-03-27T09:16:32.801Z,11.80
2019-03-27T09:19:01.268Z,10.93
2019-03-27T09:21:29.811Z,10.43
2019-03-27T09:23:58.420Z,10.55
2019-03-27T09:26:26.924Z,13.22
2019-03-27T09:28:55.456Z,9.93
2019-03-27T09:31:23.940Z,9.95
2019-03-27T09:33:52.976Z,8.70
2019-03-27T09:36:21.427Z,9.63
2019-03-27T09:38:49.916Z,10.35
2019-03-27T09:41:21.325Z,10.32
2019-03-27T09:43:48.679Z,10.72
2019-03-27T09:46:17.178Z,9.18
2019-03-27T09:48:45.731Z,10.13
2019-03-27T09:51:14.208Z,12.35
2019-03-27T09:53:49.282Z,11.60
2019-03-27T09:56:19.389Z,10.85
2019-03-27T09:58:47.999Z,10.88
2019-03-27T10:01:16.483Z,10.65
2019-03-27T10:03:45.052Z,9.73
2019-03-27T10:06:13.624Z,11.20
2019-03-27T10:08:42.228Z,10.98
2019-03-27T10:11:10.698Z,11.15
2019-03-27T10:13:39.225Z,9.58
2019-03-27T10:16:07.735Z,10.88
2019-03-27T10:18:36.346Z,9.98
2019-03-27T10:21:04.976Z,12.00
2019-03-27T10:23:33.617Z,11.47
2019-03-27T10:26:02.146Z,12.18
2019-03-27T10:28:30.680Z,10.03
2019-03-27T10:30:59.252Z,15.18
2019-03-27T10:33:27.789Z,11.50
2019-03-27T10:35:56.728Z,17.50
2019-03-27T10:38:25.305Z,13.43
2019-03-27T10:40:53.851Z,9.75
2019-03-27T10:43:22.404Z,12.15
2019-03-27T10:45:50.892Z,11.28
2019-03-27T10:48:19.350Z,12.20
2019-03-27T10:50:47.922Z,15.83
2019-03-27T10:53:16.478Z,13.50
2019-03-27T10:55:45.074Z,12.00
2019-03-27T10:58:13.629Z,9.58
2019-03-27T11:00:42.165Z,9.15
2019-03-27T11:03:10.954Z,11.40
2019-03-27T11:05:39.484Z,9.33
2019-03-27T11:08:11.213Z,12.20
2019-03-27T11:10:38.220Z,12.05
2019-03-27T11:13:06.729Z,13.60
2019-03-27T11:15:35.249Z,12.80
2019-03-27T11:18:03.981Z,13.40
2019-03-27T11:20:32.442Z,12.47
2019-03-27T11:23:00.941Z,13.50
2019-03-27T11:25:32.851Z,9.48
2019-03-27T11:27:59.667Z,10.85
2019-03-27T11:30:36.226Z,10.82
2019-03-27T11:33:05.499Z,11.73
2019-03-27T11:35:34.167Z,9.73
2019-03-27T11:38:02.955Z,11.57
2019-03-27T11:40:31.488Z,9.73
2019-03-27T11:43:00.035Z,11.85
2019-03-27T11:45:28.604Z,11.85
2019-03-27T11:47:57.077Z,10.60
2019-03-27T11:50:25.612Z,10.20
2019-03-27T11:52:54.215Z,10.82
2019-03-27T11:55:22.751Z,12.23
2019-03-27T11:57:51.281Z,11.08
2019-03-27T12:00:19.912Z,12.80
2019-03-27T12:02:48.375Z,12.78
2019-03-27T12:05:17.052Z,11.45
2019-03-27T12:07:45.545Z,9.28
2019-03-27T12:10:14.419Z,12.20
2019-03-27T12:12:42.956Z,16.15
2019-03-27T12:15:11.789Z,11.78
2019-03-27T12:17:40.249Z,14.25
2019-03-27T12:20:09.625Z,13.53
2019-03-27T12:22:38.188Z,11.90
2019-03-27T12:25:06.790Z,9.83
2019-03-27T12:27:35.343Z,14.50
2019-03-27T12:30:06.038Z,14.20
2019-03-27T12:32:34.511Z,11.12
2019-03-27T12:35:03.111Z,13.70
2019-03-27T12:37:31.688Z,11.68
2019-03-27T12:40:00.688Z,17.00
2019-03-27T12:42:29.221Z,10.82
2019-03-27T12:44:57.784Z,14.15
2019-03-27T12:47:26.286Z,13.43
2019-03-27T12:49:54.804Z,16.45
2019-03-27T12:52:23.292Z,11.93
2019-03-27T12:54:51.750Z,11.48
2019-03-27T12:57:20.280Z,11.93
2019-03-27T12:59:48.864Z,14.45
2019-03-27T13:02:17.406Z,15.68
2019-03-27T13:04:45.871Z,14.13
2019-03-27T13:07:14.434Z,16.65
2019-03-27T13:09:42.965Z,16.25
2019-03-27T13:12:11.505Z,15.13
2019-03-27T13:14:40.057Z,11.53
2019-03-27T13:17:08.529Z,12.47
2019-03-27T13:19:37.079Z,16.23
2019-03-27T13:22:05.585Z,15.08
2019-03-27T13:24:34.133Z,10.58
2019-03-27T13:27:02.672Z,14.50
2019-03-27T13:29:31.181Z,12.82
2019-03-27T13:31:59.641Z,45.20
2019-03-27T13:34:28.144Z,13.00
2019-03-27T13:36:56.698Z,16.25
2019-03-27T13:39:25.159Z,16.93
2019-03-27T13:41:53.868Z,15.85
2019-03-27T13:44:31.394Z,11.38
2019-03-27T13:46:52.587Z,12.65
2019-03-27T13:49:21.118Z,13.58
2019-03-27T13:51:49.680Z,13.05
2019-03-27T13:54:18.213Z,10.55
2019-03-27T13:56:46.678Z,11.70
2019-03-27T13:59:15.231Z,9.55
2019-03-27T14:01:43.772Z,11.73
2019-03-27T14:04:12.245Z,12.85
2019-03-27T14:06:40.732Z,13.15
2019-03-27T14:09:09.282Z,14.43
2019-03-27T14:11:37.807Z,15.58
2019-03-27T14:14:11.620Z,13.05
2019-03-27T14:16:36.737Z,14.80
2019-03-27T14:19:05.197Z,13.90
2019-03-27T14:21:33.903Z,11.48
2019-03-27T14:24:02.443Z,13.80
2019-03-27T14:26:44.000Z,13.55
2019-03-27T14:29:01.201Z,10.30
2019-03-27T14:31:29.736Z,11.35
2019-03-27T14:33:58.341Z,10.68
2019-03-27T14:36:26.914Z,12.18
2019-03-27T14:38:55.377Z,12.35
2019-03-27T14:41:23.876Z,14.98
2019-03-27T14:43:52.773Z,13.32
2019-03-27T14:46:21.509Z,11.83
2019-03-27T14:48:50.004Z,9.87
2019-03-27T14:51:18.513Z,14.95
2019-03-27T14:53:47.069Z,11.55
2019-03-27T14:56:15.605Z,10.18
2019-03-27T14:58:44.202Z,10.82
2019-03-27T15:01:12.726Z,15.80
2019-03-27T15:03:41.342Z,11.30
2019-03-27T15:06:10.097Z,16.23
2019-03-27T15:08:38.553Z,14.90
2019-03-27T15:11:07.019Z,13.90
2019-03-27T15:13:35.544Z,10.98
2019-03-27T15:16:04.350Z,9.03
2019-03-27T15:18:32.924Z,15.93
2019-03-27T15:21:01.585Z,11.78
2019-03-27T15:23:30.141Z,10.50
2019-03-27T15:25:58.674Z,13.65
2019-03-27T15:28:27.261Z,16.93
2019-03-27T15:30:55.727Z,13.48
2019-03-27T15:33:24.280Z,12.43
2019-03-27T15:35:52.780Z,13.00
2019-03-27T15:38:21.254Z,11.10
2019-03-27T15:40:49.843Z,14.75
2019-03-27T15:43:18.532Z,10.63
2019-03-27T15:45:47.801Z,14.60
2019-03-27T15:48:16.264Z,10.43
2019-03-27T15:50:55.571Z,9.93
2019-03-27T15:53:14.936Z,15.28
2019-03-27T15:55:43.532Z,16.77
2019-03-27T15:58:12.125Z,16.23
2019-03-27T16:00:40.648Z,19.37
2019-03-27T16:03:09.279Z,18.57
2019-03-27T16:05:37.777Z,16.23
2019-03-27T16:08:06.401Z,20.50
2019-03-27T16:10:34.948Z,19.60
2019-03-27T16:13:03.448Z,17.70
2019-03-27T16:15:32.048Z,16.32
2019-03-27T16:18:00.580Z,17.75
2019-03-27T16:20:29.088Z,18.45
2019-03-27T16:22:57.548Z,17.95
2019-03-27T16:25:26.144Z,16.37
2019-03-27T16:27:54.708Z,18.57
2019-03-27T16:30:23.337Z,14.25
2019-03-27T16:32:51.865Z,17.00
2019-03-27T16:35:20.383Z,18.70
2019-03-27T16:37:48.979Z,21.05
2019-03-27T16:40:20.516Z,31.65
2019-03-27T16:42:49.094Z,35.05
2019-03-27T16:45:17.719Z,30.65
2019-03-27T16:47:46.773Z,30.62
2019-03-27T16:50:15.696Z,28.60
2019-03-27T16:52:44.223Z,32.85
2019-03-27T16:55:12.823Z,30.92
2019-03-27T16:57:41.375Z,33.35
2019-03-27T17:00:11.467Z,32.85
2019-03-27T17:02:40.044Z,31.97
2019-03-27T17:05:08.863Z,35.63
2019-03-27T17:07:37.406Z,27.33
2019-03-27T17:10:06.718Z,29.52
2019-03-27T17:12:35.287Z,27.48
2019-03-27T17:15:04.694Z,33.73
2019-03-27T17:17:33.159Z,36.15
2019-03-27T17:20:01.676Z,43.17
2019-03-27T17:22:30.201Z,43.78
2019-03-27T17:24:58.663Z,50.17
2019-03-27T17:27:27.164Z,43.63
2019-03-27T17:29:55.653Z,49.48
2019-03-27T17:32:24.234Z,50.58
2019-03-27T17:34:52.736Z,48.95
2019-03-27T17:37:21.275Z,58.68
2019-03-27T17:39:49.818Z,64.55
2019-03-27T17:42:18.410Z,66.92
2019-03-27T17:44:46.944Z,69.25
2019-03-27T17:47:15.414Z,62.20
2019-03-27T17:49:44.035Z,66.10
2019-03-27T17:52:12.497Z,73.40
2019-03-27T17:54:40.961Z,77.67
2019-03-27T17:57:09.525Z,77.40
2019-03-27T17:59:37.996Z,81.02
2019-03-27T18:02:06.659Z,81.37
2019-03-27T18:04:35.227Z,86.17
2019-03-27T18:07:03.863Z,85.17
2019-03-27T18:09:32.498Z,89.25
2019-03-27T18:12:01.046Z,91.28
2019-03-27T18:14:29.501Z,87.88
2019-03-27T18:16:57.964Z,90.03
2019-03-27T18:19:26.547Z,100.58
2019-03-27T18:22:07.175Z,90.30
2019-03-27T18:24:25.273Z,91.80
2019-03-27T18:26:53.844Z,87.17
2019-03-27T18:29:22.380Z,91.60
2019-03-27T18:31:50.920Z,83.67
2019-03-27T18:34:19.521Z,80.17
2019-03-27T18:36:47.980Z,94.85
2019-03-27T18:39:16.456Z,84.03
2019-03-27T18:41:44.945Z,89.25
2019-03-27T18:44:13.550Z,83.52
2019-03-27T18:46:42.088Z,87.12
2019-03-27T18:49:10.760Z,87.30
2019-03-27T18:51:39.424Z,87.08
2019-03-27T18:54:08.839Z,86.17
2019-03-27T18:56:37.348Z,84.42
2019-03-27T18:59:05.969Z,92.57
2019-03-27T19:01:34.508Z,88.15
2019-03-27T19:04:03.140Z,87.95
2019-03-27T19:06:31.601Z,73.10
2019-03-27T19:09:00.065Z,77.97
2019-03-27T19:11:28.647Z,73.72
2019-03-27T19:13:57.220Z,69.07
2019-03-27T19:16:25.680Z,64.37
2019-03-27T19:18:54.172Z,63.55
2019-03-27T19:21:22.628Z,52.85
2019-03-27T19:23:51.163Z,54.83
2019-03-27T19:26:19.667Z,55.35
2019-03-27T19:28:48.132Z,69.20
2019-03-27T19:31:16.693Z,71.37
2019-03-27T19:33:45.264Z,74.42
2019-03-27T19:36:13.790Z,74.77
2019-03-27T19:38:42.242Z,68.02
2019-03-27T19:41:10.955Z,81.22
2019-03-27T19:43:39.504Z,81.97
2019-03-27T19:46:08.150Z,81.92
2019-03-27T19:48:36.649Z,82.65
2019-03-27T19:51:05.252Z,91.12
2019-03-27T19:53:34.508Z,96.28
2019-03-27T19:56:03.090Z,107.72
2019-03-27T19:58:31.620Z,109.48
2019-03-27T20:01:00.084Z,106.67
2019-03-27T20:03:28.751Z,111.15
2019-03-27T20:05:57.707Z,111.08
2019-03-27T20:08:26.172Z,118.80
2019-03-27T20:10:54.709Z,108.42
2019-03-27T20:13:23.240Z,111.15
2019-03-27T20:15:51.830Z,115.17
2019-03-27T20:18:20.339Z,110.85
2019-03-27T20:20:48.821Z,112.95
2019-03-27T20:23:17.407Z,100.00
2019-03-27T20:25:45.989Z,97.80
2019-03-27T20:28:14.456Z,104.40
2019-03-27T20:30:42.928Z,108.32
2019-03-27T20:33:11.497Z,112.22
2019-03-27T20:35:40.045Z,110.80
2019-03-27T20:38:08.600Z,106.32
2019-03-27T20:40:37.106Z,115.67
2019-03-27T20:43:05.713Z,117.90
2019-03-27T20:45:34.172Z,100.70
2019-03-27T20:48:02.747Z,104.70
2019-03-27T20:50:31.373Z,101.97
2019-03-27T20:52:59.910Z,101.95
2019-03-27T20:55:30.470Z,99.62
2019-03-27T20:57:58.952Z,104.78
2019-03-27T21:00:27.485Z,100.02
2019-03-27T21:02:55.990Z,106.47
2019-03-27T21:05:24.599Z,96.75
2019-03-27T21:07:53.076Z,108.57
2019-03-27T21:10:21.638Z,107.27
2019-03-27T21:12:50.175Z,101.40
2019-03-27T21:15:18.703Z,89.00
2019-03-27T21:17:47.200Z,100.85
2019-03-27T21:20:15.798Z,101.02
2019-03-27T21:22:44.252Z,98.92
2019-03-27T21:25:13.212Z,96.02
2019-03-27T21:27:41.745Z,97.92
2019-03-27T21:30:11.169Z,103.10
2019-03-27T21:32:39.768Z,105.22
2019-03-27T21:35:08.484Z,102.70
2019-03-27T21:37:37.169Z,117.17
2019-03-27T21:40:08.700Z,95.55
2019-03-27T21:42:37.309Z,107.87
2019-03-27T21:45:09.551Z,90.85
2019-03-27T21:47:38.223Z,66.77
2019-03-27T21:50:10.183Z,69.90
2019-03-27T21:52:38.643Z,66.90
2019-03-27T21:55:21.548Z,67.30
2019-03-27T21:57:38.275Z,62.62
2019-03-27T22:00:07.782Z,68.77
2019-03-27T22:02:36.264Z,56.95
2019-03-27T22:05:06.064Z,60.95
2019-03-27T22:07:34.519Z,56.53
2019-03-27T22:10:03.476Z,59.88
2019-03-27T22:12:32.015Z,61.70
2019-03-27T22:15:00.548Z,58.45
2019-03-27T22:17:29.057Z,63.63
2019-03-27T22:19:57.584Z,67.53
2019-03-27T22:22:26.116Z,66.07
2019-03-27T22:24:54.609Z,60.67
2019-03-27T22:27:23.071Z,62.17
2019-03-27T22:29:51.604Z,60.60
2019-03-27T22:32:20.180Z,62.05
2019-03-27T22:34:48.648Z,66.28
2019-03-27T22:37:17.193Z,62.00
2019-03-27T22:39:45.781Z,58.70
2019-03-27T22:42:14.315Z,61.35
2019-03-27T22:44:42.848Z,61.70
2019-03-27T22:47:11.341Z,66.82
2019-03-27T22:49:39.808Z,66.53
2019-03-27T22:52:08.352Z,66.10
2019-03-27T22:54:36.876Z,59.45
2019-03-27T22:57:05.343Z,66.40
2019-03-27T22:59:34.212Z,65.72
2019-03-27T23:02:02.849Z,78.37
2019-03-27T23:04:31.328Z,77.17
2019-03-27T23:06:59.784Z,80.57
2019-03-27T23:09:28.287Z,76.33
2019-03-27T23:11:56.836Z,72.00
2019-03-27T23:14:25.300Z,74.97
2019-03-27T23:16:53.876Z,66.40
2019-03-27T23:19:22.327Z,74.45
2019-03-27T23:21:50.792Z,62.03
2019-03-27T23:24:19.371Z,70.20
2019-03-27T23:26:47.921Z,74.17
2019-03-27T23:29:16.456Z,77.12
2019-03-27T23:31:44.948Z,69.87
2019-03-27T23:34:13.413Z,69.20
2019-03-27T23:36:41.871Z,72.87
2019-03-27T23:39:10.405Z,62.85
2019-03-27T23:41:38.940Z,64.17
2019-03-27T23:44:07.398Z,60.43
2019-03-27T23:46:35.968Z,55.38
2019-03-27T23:49:04.715Z,57.03
2019-03-27T23:51:33.171Z,55.80
2019-03-27T23:54:01.677Z,50.60
2019-03-27T23:56:30.137Z,53.68
2019-03-27T23:58:58.614Z,53.87
